sensor_id;sensor_type;location;lat;lon;timestamp;pressure;altitude;pressure_sealevel;temperature;humidity
77165;BME280;66140;50.280;18.660;2023-04-25T04:01:43;98011.22;;;8.09;97.92
77165;BME280;66140;50.280;18.660;2023-04-25T04:04:10;98010.06;;;8.00;97.74
77165;BME280;66140;50.280;18.660;2023-04-25T04:06:36;97998.97;;;7.95;96.18
77165;BME280;66140;50.280;18.660;2023-04-25T04:09:02;98022.22;;;8.03;96.36
77165;BME280;66140;50.280;18.660;2023-04-25T04:11:28;97997.00;;;7.99;96.71
77165;BME280;66140;50.280;18.660;2023-04-25T04:13:54;98002.78;;;8.04;96.68
77165;BME280;66140;50.280;18.660;2023-04-25T04:16:20;98004.97;;;8.10;95.78
77165;BME280;66140;50.280;18.660;2023-04-25T04:18:46;98017.97;;;8.13;96.78
77165;BME280;66140;50.280;18.660;2023-04-25T04:21:11;97994.53;;;8.09;97.18
77165;BME280;66140;50.280;18.660;2023-04-25T04:23:37;98011.00;;;8.12;95.78
77165;BME280;66140;50.280;18.660;2023-04-25T04:26:03;98013.66;;;8.12;95.95
77165;BME280;66140;50.280;18.660;2023-04-25T04:28:28;98017.31;;;8.22;96.78
77165;BME280;66140;50.280;18.660;2023-04-25T04:30:54;98035.72;;;8.24;97.07
77165;BME280;66140;50.280;18.660;2023-04-25T04:33:20;98030.31;;;8.25;95.13
77165;BME280;66140;50.280;18.660;2023-04-25T04:35:46;98027.28;;;8.19;96.24
77165;BME280;66140;50.280;18.660;2023-04-25T04:38:13;98013.72;;;8.23;96.32
77165;BME280;66140;50.280;18.660;2023-04-25T04:40:40;98023.09;;;8.27;94.27
77165;BME280;66140;50.280;18.660;2023-04-25T04:43:08;98020.91;;;8.21;95.75
77165;BME280;66140;50.280;18.660;2023-04-25T04:45:36;98024.06;;;8.26;93.52
77165;BME280;66140;50.280;18.660;2023-04-25T04:48:05;98030.88;;;8.30;94.64
77165;BME280;66140;50.280;18.660;2023-04-25T04:50:30;98029.13;;;8.29;94.94
77165;BME280;66140;50.280;18.660;2023-04-25T04:52:57;98028.63;;;8.37;94.52
77165;BME280;66140;50.280;18.660;2023-04-25T04:55:23;98032.81;;;8.39;93.47
77165;BME280;66140;50.280;18.660;2023-04-25T04:57:48;98035.03;;;8.45;93.72
77165;BME280;66140;50.280;18.660;2023-04-25T05:00:14;98020.34;;;8.41;93.27
77165;BME280;66140;50.280;18.660;2023-04-25T05:02:40;98022.66;;;8.46;92.88
77165;BME280;66140;50.280;18.660;2023-04-25T05:05:06;98031.44;;;8.47;91.09
77165;BME280;66140;50.280;18.660;2023-04-25T05:07:32;98027.41;;;8.54;91.38
77165;BME280;66140;50.280;18.660;2023-04-25T05:09:57;98030.69;;;8.57;92.05
77165;BME280;66140;50.280;18.660;2023-04-25T05:12:25;98028.25;;;8.54;91.27
77165;BME280;66140;50.280;18.660;2023-04-25T05:14:51;98034.78;;;8.61;89.78
77165;BME280;66140;50.280;18.660;2023-04-25T05:17:16;98019.97;;;8.59;91.76
77165;BME280;66140;50.280;18.660;2023-04-25T05:19:42;98028.44;;;8.64;89.21
77165;BME280;66140;50.280;18.660;2023-04-25T05:22:07;98020.81;;;8.59;90.71
77165;BME280;66140;50.280;18.660;2023-04-25T05:24:33;98022.63;;;8.59;90.46
77165;BME280;66140;50.280;18.660;2023-04-25T05:26:58;98032.53;;;8.68;90.95
77165;BME280;66140;50.280;18.660;2023-04-25T05:29:24;98035.78;;;8.71;89.76
77165;BME280;66140;50.280;18.660;2023-04-25T05:31:55;98021.44;;;8.63;88.45
77165;BME280;66140;50.280;18.660;2023-04-25T05:34:36;98029.66;;;8.71;89.03
77165;BME280;66140;50.280;18.660;2023-04-25T05:37:04;98022.69;;;8.70;88.32
77165;BME280;66140;50.280;18.660;2023-04-25T05:39:29;98040.63;;;8.77;88.43
77165;BME280;66140;50.280;18.660;2023-04-25T05:41:55;98037.03;;;8.78;88.63
77165;BME280;66140;50.280;18.660;2023-04-25T05:44:26;98042.72;;;8.85;88.09
77165;BME280;66140;50.280;18.660;2023-04-25T05:46:51;98029.81;;;8.80;89.51
77165;BME280;66140;50.280;18.660;2023-04-25T05:49:17;98038.81;;;8.78;87.24
77165;BME280;66140;50.280;18.660;2023-04-25T05:51:42;98037.19;;;8.88;87.89
77165;BME280;66140;50.280;18.660;2023-04-25T05:54:08;98057.41;;;8.89;89.82
77165;BME280;66140;50.280;18.660;2023-04-25T05:56:33;98035.91;;;8.94;91.01
77165;BME280;66140;50.280;18.660;2023-04-25T05:58:59;98033.22;;;8.82;89.54
77165;BME280;66140;50.280;18.660;2023-04-25T06:01:24;98020.94;;;8.81;88.96
77165;BME280;66140;50.280;18.660;2023-04-25T06:03:50;98023.09;;;8.76;88.31
77165;BME280;66140;50.280;18.660;2023-04-25T06:06:17;98039.09;;;8.86;89.67
77165;BME280;66140;50.280;18.660;2023-04-25T06:08:43;98040.81;;;8.87;87.53
77165;BME280;66140;50.280;18.660;2023-04-25T06:11:09;98030.88;;;8.78;87.80
77165;BME280;66140;50.280;18.660;2023-04-25T06:13:34;98038.91;;;8.89;89.30
77165;BME280;66140;50.280;18.660;2023-04-25T06:16:00;98041.28;;;8.92;87.47
77165;BME280;66140;50.280;18.660;2023-04-25T06:18:25;98031.81;;;8.90;87.18
77165;BME280;66140;50.280;18.660;2023-04-25T06:20:51;98023.63;;;8.93;88.33
77165;BME280;66140;50.280;18.660;2023-04-25T06:23:17;98037.75;;;9.04;86.83
77165;BME280;66140;50.280;18.660;2023-04-25T06:25:43;98044.44;;;8.97;86.05
77165;BME280;66140;50.280;18.660;2023-04-25T06:28:08;98046.41;;;9.06;87.98
77165;BME280;66140;50.280;18.660;2023-04-25T06:30:36;98047.75;;;9.12;85.66
77165;BME280;66140;50.280;18.660;2023-04-25T06:33:02;98042.13;;;9.16;84.67
77165;BME280;66140;50.280;18.660;2023-04-25T06:35:28;98049.09;;;9.17;87.48
77165;BME280;66140;50.280;18.660;2023-04-25T06:37:53;98050.31;;;9.24;85.58
77165;BME280;66140;50.280;18.660;2023-04-25T06:40:19;98027.94;;;9.29;85.01
77165;BME280;66140;50.280;18.660;2023-04-25T06:42:44;98051.19;;;9.36;85.77
77165;BME280;66140;50.280;18.660;2023-04-25T06:45:10;98050.63;;;9.44;83.67
77165;BME280;66140;50.280;18.660;2023-04-25T06:47:35;98037.38;;;9.44;83.59
77165;BME280;66140;50.280;18.660;2023-04-25T06:50:01;98042.22;;;9.50;84.41
77165;BME280;66140;50.280;18.660;2023-04-25T06:52:27;98038.13;;;9.57;81.55
77165;BME280;66140;50.280;18.660;2023-04-25T06:54:52;98047.19;;;9.65;82.62
77165;BME280;66140;50.280;18.660;2023-04-25T06:57:22;98036.97;;;9.72;83.32
77165;BME280;66140;50.280;18.660;2023-04-25T06:59:49;98030.31;;;9.66;82.28
77165;BME280;66140;50.280;18.660;2023-04-25T07:02:15;98042.00;;;9.64;82.10
77165;BME280;66140;50.280;18.660;2023-04-25T07:04:41;98030.09;;;9.70;82.16
77165;BME280;66140;50.280;18.660;2023-04-25T07:07:07;98049.47;;;9.59;82.13
77165;BME280;66140;50.280;18.660;2023-04-25T07:09:32;98039.81;;;9.47;81.98
77165;BME280;66140;50.280;18.660;2023-04-25T07:11:59;98042.31;;;9.48;83.52
77165;BME280;66140;50.280;18.660;2023-04-25T07:14:27;98036.81;;;9.51;83.24
77165;BME280;66140;50.280;18.660;2023-04-25T07:16:53;98046.31;;;9.54;82.77
77165;BME280;66140;50.280;18.660;2023-04-25T07:19:18;98046.19;;;9.55;82.77
77165;BME280;66140;50.280;18.660;2023-04-25T07:21:43;98032.34;;;9.52;81.66
77165;BME280;66140;50.280;18.660;2023-04-25T07:24:10;98047.69;;;9.71;81.60
77165;BME280;66140;50.280;18.660;2023-04-25T07:26:36;98042.28;;;9.83;82.46
77165;BME280;66140;50.280;18.660;2023-04-25T07:29:01;98038.78;;;9.94;78.88
77165;BME280;66140;50.280;18.660;2023-04-25T07:31:29;98044.06;;;10.05;78.86
77165;BME280;66140;50.280;18.660;2023-04-25T07:33:55;98048.56;;;10.16;79.46
77165;BME280;66140;50.280;18.660;2023-04-25T07:36:21;98048.56;;;10.16;78.36
77165;BME280;66140;50.280;18.660;2023-04-25T07:38:47;98045.66;;;10.41;76.99
77165;BME280;66140;50.280;18.660;2023-04-25T07:41:13;98046.59;;;10.51;78.28
77165;BME280;66140;50.280;18.660;2023-04-25T07:43:39;98053.41;;;10.76;75.68
77165;BME280;66140;50.280;18.660;2023-04-25T07:46:04;98035.91;;;10.84;75.27
77165;BME280;66140;50.280;18.660;2023-04-25T07:48:30;98041.50;;;10.81;74.20
77165;BME280;66140;50.280;18.660;2023-04-25T07:50:55;98045.78;;;10.94;74.99
77165;BME280;66140;50.280;18.660;2023-04-25T07:53:21;98044.31;;;11.01;73.45
77165;BME280;66140;50.280;18.660;2023-04-25T07:55:46;98031.28;;;10.98;74.18
77165;BME280;66140;50.280;18.660;2023-04-25T07:58:12;98038.03;;;11.02;71.92
77165;BME280;66140;50.280;18.660;2023-04-25T08:00:38;98061.91;;;11.13;74.37
77165;BME280;66140;50.280;18.660;2023-04-25T08:03:03;98034.56;;;11.22;73.30
77165;BME280;66140;50.280;18.660;2023-04-25T08:05:29;98040.16;;;11.19;73.00
77165;BME280;66140;50.280;18.660;2023-04-25T08:07:54;98037.09;;;11.23;71.86
77165;BME280;66140;50.280;18.660;2023-04-25T08:10:22;98037.81;;;11.46;70.11
77165;BME280;66140;50.280;18.660;2023-04-25T08:12:48;98050.13;;;11.68;68.96
77165;BME280;66140;50.280;18.660;2023-04-25T08:15:14;98035.50;;;11.74;69.46
77165;BME280;66140;50.280;18.660;2023-04-25T08:17:40;98037.91;;;11.77;70.69
77165;BME280;66140;50.280;18.660;2023-04-25T08:20:06;98037.31;;;11.94;68.76
77165;BME280;66140;50.280;18.660;2023-04-25T08:22:32;98037.72;;;11.89;68.36
77165;BME280;66140;50.280;18.660;2023-04-25T08:24:57;98031.03;;;12.04;66.56
77165;BME280;66140;50.280;18.660;2023-04-25T08:27:23;98035.38;;;11.96;65.92
77165;BME280;66140;50.280;18.660;2023-04-25T08:29:49;98029.63;;;12.00;65.73
77165;BME280;66140;50.280;18.660;2023-04-25T08:32:16;98032.50;;;12.18;69.49
77165;BME280;66140;50.280;18.660;2023-04-25T08:34:41;98025.44;;;12.28;66.37
77165;BME280;66140;50.280;18.660;2023-04-25T08:37:09;98035.09;;;11.99;67.80
77165;BME280;66140;50.280;18.660;2023-04-25T08:39:37;98034.19;;;12.10;66.40
77165;BME280;66140;50.280;18.660;2023-04-25T08:42:06;98043.50;;;12.04;68.88
77165;BME280;66140;50.280;18.660;2023-04-25T08:44:34;98037.66;;;12.10;68.38
77165;BME280;66140;50.280;18.660;2023-04-25T08:47:03;98029.31;;;12.24;68.90
77165;BME280;66140;50.280;18.660;2023-04-25T08:49:33;98048.97;;;12.42;66.70
77165;BME280;66140;50.280;18.660;2023-04-25T08:52:02;98042.66;;;12.34;66.30
77165;BME280;66140;50.280;18.660;2023-04-25T08:54:30;98042.19;;;12.19;64.59
77165;BME280;66140;50.280;18.660;2023-04-25T08:56:57;98033.59;;;12.46;65.90
77165;BME280;66140;50.280;18.660;2023-04-25T08:59:28;98043.88;;;12.60;63.68
77165;BME280;66140;50.280;18.660;2023-04-25T09:01:58;98049.50;;;12.67;64.16
77165;BME280;66140;50.280;18.660;2023-04-25T09:04:23;98044.28;;;12.75;64.38
77165;BME280;66140;50.280;18.660;2023-04-25T09:06:49;98052.16;;;12.67;57.53
77165;BME280;66140;50.280;18.660;2023-04-25T09:09:14;98034.31;;;12.58;57.27
77165;BME280;66140;50.280;18.660;2023-04-25T09:11:40;98043.28;;;12.57;60.50
77165;BME280;66140;50.280;18.660;2023-04-25T09:14:18;98050.84;;;12.61;56.38
77165;BME280;66140;50.280;18.660;2023-04-25T09:16:59;98043.66;;;12.42;59.45
77165;BME280;66140;50.280;18.660;2023-04-25T09:19:36;98041.72;;;12.44;58.19
77165;BME280;66140;50.280;18.660;2023-04-25T09:22:04;98046.81;;;12.67;61.83
77165;BME280;66140;50.280;18.660;2023-04-25T09:24:33;98044.31;;;12.94;59.93
77165;BME280;66140;50.280;18.660;2023-04-25T09:26:59;98047.84;;;12.95;56.15
77165;BME280;66140;50.280;18.660;2023-04-25T09:29:30;98056.38;;;12.79;57.08
77165;BME280;66140;50.280;18.660;2023-04-25T09:32:16;98057.22;;;12.79;58.42
77165;BME280;66140;50.280;18.660;2023-04-25T09:34:44;98052.19;;;12.86;55.25
77165;BME280;66140;50.280;18.660;2023-04-25T09:37:10;98053.03;;;12.87;56.00
77165;BME280;66140;50.280;18.660;2023-04-25T09:39:39;98051.63;;;12.92;55.51
77165;BME280;66140;50.280;18.660;2023-04-25T09:42:05;98059.31;;;12.85;55.88
77165;BME280;66140;50.280;18.660;2023-04-25T09:44:31;98041.16;;;12.51;53.85
77165;BME280;66140;50.280;18.660;2023-04-25T09:46:57;98047.56;;;12.38;56.65
77165;BME280;66140;50.280;18.660;2023-04-25T09:49:23;98055.19;;;12.53;57.39
77165;BME280;66140;50.280;18.660;2023-04-25T09:51:59;98046.06;;;12.45;56.83
77165;BME280;66140;50.280;18.660;2023-04-25T09:54:26;98035.97;;;12.49;55.92
77165;BME280;66140;50.280;18.660;2023-04-25T09:56:53;98059.28;;;12.66;56.05
77165;BME280;66140;50.280;18.660;2023-04-25T09:59:22;98049.28;;;12.49;55.47
77165;BME280;66140;50.280;18.660;2023-04-25T10:01:52;98042.50;;;12.35;57.57
77165;BME280;66140;50.280;18.660;2023-04-25T10:04:26;98053.31;;;12.34;55.93
77165;BME280;66140;50.280;18.660;2023-04-25T10:06:53;98057.28;;;12.19;55.82
77165;BME280;66140;50.280;18.660;2023-04-25T10:09:20;98055.91;;;12.24;57.52
77165;BME280;66140;50.280;18.660;2023-04-25T10:12:17;98048.53;;;12.37;57.85
77165;BME280;66140;50.280;18.660;2023-04-25T10:15:02;98048.94;;;12.33;57.23
77165;BME280;66140;50.280;18.660;2023-04-25T10:17:34;98051.50;;;12.34;57.30
77165;BME280;66140;50.280;18.660;2023-04-25T10:20:06;98041.34;;;12.59;55.53
77165;BME280;66140;50.280;18.660;2023-04-25T10:22:45;98048.16;;;12.52;57.39
77165;BME280;66140;50.280;18.660;2023-04-25T10:25:15;98041.88;;;12.53;56.91
77165;BME280;66140;50.280;18.660;2023-04-25T10:27:47;98044.59;;;12.72;55.23
77165;BME280;66140;50.280;18.660;2023-04-25T10:30:23;98049.19;;;12.60;54.79
77165;BME280;66140;50.280;18.660;2023-04-25T10:32:55;98045.09;;;12.47;54.92
77165;BME280;66140;50.280;18.660;2023-04-25T10:35:25;98034.97;;;12.40;55.18
77165;BME280;66140;50.280;18.660;2023-04-25T10:38:11;98041.00;;;12.42;53.43
77165;BME280;66140;50.280;18.660;2023-04-25T10:40:37;98054.03;;;12.45;52.70
77165;BME280;66140;50.280;18.660;2023-04-25T10:45:58;98055.38;;;12.30;54.11
77165;BME280;66140;50.280;18.660;2023-04-25T10:48:25;98050.22;;;12.38;55.13
77165;BME280;66140;50.280;18.660;2023-04-25T10:51:15;98050.94;;;12.40;53.05
77165;BME280;66140;50.280;18.660;2023-04-25T10:53:46;98056.56;;;12.47;53.07
77165;BME280;66140;50.280;18.660;2023-04-25T10:56:17;98051.72;;;12.22;51.95
77165;BME280;66140;50.280;18.660;2023-04-25T10:58:44;98051.91;;;12.39;54.10
77165;BME280;66140;50.280;18.660;2023-04-25T11:01:10;98039.47;;;12.50;54.71
77165;BME280;66140;50.280;18.660;2023-04-25T11:03:43;98044.03;;;12.78;54.76
77165;BME280;66140;50.280;18.660;2023-04-25T11:09:15;98045.72;;;12.89;54.17
77165;BME280;66140;50.280;18.660;2023-04-25T11:11:41;98028.34;;;12.94;55.73
77165;BME280;66140;50.280;18.660;2023-04-25T11:14:06;98038.78;;;13.16;55.14
77165;BME280;66140;50.280;18.660;2023-04-25T11:16:32;98037.63;;;13.09;52.37
77165;BME280;66140;50.280;18.660;2023-04-25T11:18:58;98042.81;;;12.92;54.20
77165;BME280;66140;50.280;18.660;2023-04-25T11:21:27;98054.94;;;12.65;54.92
77165;BME280;66140;50.280;18.660;2023-04-25T11:23:56;98044.41;;;12.64;55.21
77165;BME280;66140;50.280;18.660;2023-04-25T11:26:24;98047.44;;;12.50;53.26
77165;BME280;66140;50.280;18.660;2023-04-25T11:28:51;98057.44;;;12.57;56.61
77165;BME280;66140;50.280;18.660;2023-04-25T11:31:20;98049.88;;;12.62;56.50
77165;BME280;66140;50.280;18.660;2023-04-25T11:33:46;98058.81;;;12.61;56.01
77165;BME280;66140;50.280;18.660;2023-04-25T11:36:12;98050.53;;;12.55;55.30
77165;BME280;66140;50.280;18.660;2023-04-25T11:38:37;98054.03;;;12.45;55.96
77165;BME280;66140;50.280;18.660;2023-04-25T11:41:03;98057.06;;;12.31;55.82
77165;BME280;66140;50.280;18.660;2023-04-25T11:43:28;98049.00;;;12.12;55.89
77165;BME280;66140;50.280;18.660;2023-04-25T11:45:53;98049.44;;;12.17;56.78
77165;BME280;66140;50.280;18.660;2023-04-25T11:48:19;98054.75;;;12.17;56.29
77165;BME280;66140;50.280;18.660;2023-04-25T11:50:45;98052.09;;;12.17;56.08
77165;BME280;66140;50.280;18.660;2023-04-25T11:53:11;98042.34;;;12.27;54.67
77165;BME280;66140;50.280;18.660;2023-04-25T11:55:37;98055.38;;;12.30;55.27
77165;BME280;66140;50.280;18.660;2023-04-25T11:58:03;98048.22;;;12.31;54.90
77165;BME280;66140;50.280;18.660;2023-04-25T12:00:30;98043.22;;;12.37;56.23
77165;BME280;66140;50.280;18.660;2023-04-25T12:02:56;98046.47;;;12.41;55.78
77165;BME280;66140;50.280;18.660;2023-04-25T12:05:29;98055.00;;;12.44;55.31
77165;BME280;66140;50.280;18.660;2023-04-25T12:07:54;98038.00;;;12.26;55.06
77165;BME280;66140;50.280;18.660;2023-04-25T12:10:20;98052.28;;;12.25;54.86
77165;BME280;66140;50.280;18.660;2023-04-25T12:12:47;98045.56;;;12.21;53.74
77165;BME280;66140;50.280;18.660;2023-04-25T12:15:23;98023.91;;;12.05;54.16
77165;BME280;66140;50.280;18.660;2023-04-25T12:17:50;98049.66;;;12.04;53.64
77165;BME280;66140;50.280;18.660;2023-04-25T12:20:18;98047.97;;;12.03;54.90
77165;BME280;66140;50.280;18.660;2023-04-25T12:22:46;98039.03;;;12.04;55.61
77165;BME280;66140;50.280;18.660;2023-04-25T12:25:12;98039.19;;;12.03;55.99
77165;BME280;66140;50.280;18.660;2023-04-25T12:27:39;98035.09;;;11.99;56.68
77165;BME280;66140;50.280;18.660;2023-04-25T12:30:10;98030.03;;;11.96;55.65
77165;BME280;66140;50.280;18.660;2023-04-25T12:32:38;98050.25;;;12.08;56.47
77165;BME280;66140;50.280;18.660;2023-04-25T12:35:05;98043.44;;;12.15;56.17
77165;BME280;66140;50.280;18.660;2023-04-25T12:37:31;98036.28;;;12.16;55.26
77165;BME280;66140;50.280;18.660;2023-04-25T12:39:57;98034.00;;;12.11;54.73
77165;BME280;66140;50.280;18.660;2023-04-25T12:42:22;98041.88;;;12.13;54.66
77165;BME280;66140;50.280;18.660;2023-04-25T12:44:47;98030.06;;;12.05;53.79
77165;BME280;66140;50.280;18.660;2023-04-25T12:47:13;98036.56;;;12.13;56.41
77165;BME280;66140;50.280;18.660;2023-04-25T12:49:39;98027.00;;;12.10;55.91
77165;BME280;66140;50.280;18.660;2023-04-25T12:52:04;98040.78;;;12.15;57.79
77165;BME280;66140;50.280;18.660;2023-04-25T12:54:30;98031.22;;;12.13;58.32
77165;BME280;66140;50.280;18.660;2023-04-25T12:56:56;98015.31;;;12.22;57.59
77165;BME280;66140;50.280;18.660;2023-04-25T12:59:22;98024.53;;;12.18;55.09
77165;BME280;66140;50.280;18.660;2023-04-25T13:01:48;98016.56;;;12.18;55.97
77165;BME280;66140;50.280;18.660;2023-04-25T13:04:14;98004.41;;;12.25;55.61
77165;BME280;66140;50.280;18.660;2023-04-25T13:06:40;98030.22;;;12.34;54.56
77165;BME280;66140;50.280;18.660;2023-04-25T13:09:05;98021.22;;;12.35;55.17
77165;BME280;66140;50.280;18.660;2023-04-25T13:11:31;98008.94;;;12.34;57.13
77165;BME280;66140;50.280;18.660;2023-04-25T13:13:57;98020.16;;;12.48;55.71
77165;BME280;66140;50.280;18.660;2023-04-25T13:16:22;98013.59;;;12.52;57.07
77165;BME280;66140;50.280;18.660;2023-04-25T13:18:50;98007.31;;;12.72;57.44
77165;BME280;66140;50.280;18.660;2023-04-25T13:21:15;98012.50;;;12.83;53.39
77165;BME280;66140;50.280;18.660;2023-04-25T13:23:45;98007.34;;;12.91;53.67
77165;BME280;66140;50.280;18.660;2023-04-25T13:26:11;98021.06;;;12.96;53.61
77165;BME280;66140;50.280;18.660;2023-04-25T13:28:37;97999.06;;;12.84;54.66
77165;BME280;66140;50.280;18.660;2023-04-25T13:31:03;98030.34;;;12.92;53.48
77165;BME280;66140;50.280;18.660;2023-04-25T13:33:28;98009.59;;;12.86;53.64
77165;BME280;66140;50.280;18.660;2023-04-25T13:35:54;98018.16;;;12.99;54.10
77165;BME280;66140;50.280;18.660;2023-04-25T13:38:21;98010.16;;;13.09;55.72
77165;BME280;66140;50.280;18.660;2023-04-25T13:40:47;98011.31;;;13.16;53.27
77165;BME280;66140;50.280;18.660;2023-04-25T13:43:13;98011.25;;;13.06;53.88
77165;BME280;66140;50.280;18.660;2023-04-25T13:45:39;98013.91;;;13.06;52.91
77165;BME280;66140;50.280;18.660;2023-04-25T13:48:04;98008.19;;;13.01;52.14
77165;BME280;66140;50.280;18.660;2023-04-25T13:50:30;98010.16;;;12.99;52.65
77165;BME280;66140;50.280;18.660;2023-04-25T13:52:56;98020.91;;;12.88;52.64
77165;BME280;66140;50.280;18.660;2023-04-25T13:55:22;98013.66;;;12.90;52.70
77165;BME280;66140;50.280;18.660;2023-04-25T13:57:49;98012.38;;;12.84;55.30
77165;BME280;66140;50.280;18.660;2023-04-25T14:00:20;98015.19;;;12.83;54.01
77165;BME280;66140;50.280;18.660;2023-04-25T14:02:48;98021.91;;;12.87;54.22
77165;BME280;66140;50.280;18.660;2023-04-25T14:05:26;98022.75;;;12.78;55.19
77165;BME280;66140;50.280;18.660;2023-04-25T14:07:53;98008.59;;;12.87;55.85
77165;BME280;66140;50.280;18.660;2023-04-25T14:10:18;98009.31;;;12.99;53.50
77165;BME280;66140;50.280;18.660;2023-04-25T14:12:44;98020.38;;;12.94;52.19
77165;BME280;66140;50.280;18.660;2023-04-25T14:15:12;98010.69;;;12.93;52.04
77165;BME280;66140;50.280;18.660;2023-04-25T14:17:37;98014.34;;;13.02;53.96
77165;BME280;66140;50.280;18.660;2023-04-25T14:20:09;97990.38;;;13.02;54.70
77165;BME280;66140;50.280;18.660;2023-04-25T14:22:38;98008.19;;;13.01;53.29
77165;BME280;66140;50.280;18.660;2023-04-25T14:25:08;98018.16;;;12.99;54.73
77165;BME280;66140;50.280;18.660;2023-04-25T14:27:35;98015.19;;;13.02;52.43
77165;BME280;66140;50.280;18.660;2023-04-25T14:30:03;98011.25;;;12.87;53.18
77165;BME280;66140;50.280;18.660;2023-04-25T14:32:39;98024.56;;;12.87;53.65
77165;BME280;66140;50.280;18.660;2023-04-25T14:35:05;98010.16;;;12.80;52.72
77165;BME280;66140;50.280;18.660;2023-04-25T14:37:30;98021.31;;;12.74;53.02
77165;BME280;66140;50.280;18.660;2023-04-25T14:39:58;98014.97;;;12.56;53.84
77165;BME280;66140;50.280;18.660;2023-04-25T14:42:27;98029.13;;;12.56;54.19
77165;BME280;66140;50.280;18.660;2023-04-25T14:45:14;98017.88;;;12.33;53.65
77165;BME280;66140;50.280;18.660;2023-04-25T14:47:40;98027.50;;;12.25;53.80
77165;BME280;66140;50.280;18.660;2023-04-25T14:50:07;98035.44;;;12.15;54.79
77165;BME280;66140;50.280;18.660;2023-04-25T14:52:34;98022.69;;;12.09;55.56
77165;BME280;66140;50.280;18.660;2023-04-25T14:54:59;98014.44;;;12.12;54.90
77165;BME280;66140;50.280;18.660;2023-04-25T14:57:27;98039.25;;;12.22;55.45
77165;BME280;66140;50.280;18.660;2023-04-25T15:00:00;98025.44;;;12.28;56.01
77165;BME280;66140;50.280;18.660;2023-04-25T15:02:40;98022.53;;;12.41;56.24
77165;BME280;66140;50.280;18.660;2023-04-25T15:05:11;98020.41;;;12.44;57.04
77165;BME280;66140;50.280;18.660;2023-04-25T15:07:39;98025.38;;;12.59;56.71
77165;BME280;66140;50.280;18.660;2023-04-25T15:10:09;98029.72;;;12.60;53.57
77165;BME280;66140;50.280;18.660;2023-04-25T15:12:39;98019.72;;;12.42;55.15
77165;BME280;66140;50.280;18.660;2023-04-25T15:15:06;98020.72;;;12.41;55.55
77165;BME280;66140;50.280;18.660;2023-04-25T15:17:37;98008.63;;;12.37;55.30
77165;BME280;66140;50.280;18.660;2023-04-25T15:20:10;98036.94;;;12.38;54.98
77165;BME280;66140;50.280;18.660;2023-04-25T15:22:43;98039.34;;;12.41;56.78
77165;BME280;66140;50.280;18.660;2023-04-25T15:25:10;98025.97;;;12.22;55.48
77165;BME280;66140;50.280;18.660;2023-04-25T15:27:38;98044.97;;;12.18;56.44
77165;BME280;66140;50.280;18.660;2023-04-25T15:30:13;98038.47;;;12.01;56.16
77165;BME280;66140;50.280;18.660;2023-04-25T15:33:11;98047.53;;;11.98;56.16
77165;BME280;66140;50.280;18.660;2023-04-25T15:35:41;98044.50;;;12.03;55.38
77165;BME280;66140;50.280;18.660;2023-04-25T15:38:17;98035.94;;;11.99;57.31
77165;BME280;66140;50.280;18.660;2023-04-25T15:40:43;98037.09;;;12.07;56.56
77165;BME280;66140;50.280;18.660;2023-04-25T15:43:33;98037.38;;;12.13;56.30
77165;BME280;66140;50.280;18.660;2023-04-25T15:46:06;98045.28;;;12.24;55.14
77165;BME280;66140;50.280;18.660;2023-04-25T15:48:54;98040.78;;;12.15;53.77
77165;BME280;66140;50.280;18.660;2023-04-25T15:51:20;98046.81;;;12.27;54.54
77165;BME280;66140;50.280;18.660;2023-04-25T15:53:46;98039.94;;;12.24;52.43
77165;BME280;66140;50.280;18.660;2023-04-25T15:56:11;98050.22;;;12.29;54.02
77165;BME280;66140;50.280;18.660;2023-04-25T15:58:37;98036.59;;;12.22;51.90
77165;BME280;66140;50.280;18.660;2023-04-25T16:01:03;98039.41;;;12.30;53.69
77165;BME280;66140;50.280;18.660;2023-04-25T16:03:29;98053.72;;;12.39;53.01
77165;BME280;66140;50.280;18.660;2023-04-25T16:06:01;98046.81;;;12.27;52.92
77165;BME280;66140;50.280;18.660;2023-04-25T16:08:27;98055.22;;;12.22;52.31
77165;BME280;66140;50.280;18.660;2023-04-25T16:11:21;98055.03;;;12.14;53.30
77165;BME280;66140;50.280;18.660;2023-04-25T16:14:05;98036.53;;;12.03;53.40
77165;BME280;66140;50.280;18.660;2023-04-25T16:16:32;98063.78;;;12.05;52.99
77165;BME280;66140;50.280;18.660;2023-04-25T16:19:08;98043.59;;;11.93;52.74
77165;BME280;66140;50.280;18.660;2023-04-25T16:21:37;98047.31;;;11.81;54.52
77165;BME280;66140;50.280;18.660;2023-04-25T16:24:03;98054.56;;;11.79;53.24
77165;BME280;66140;50.280;18.660;2023-04-25T16:26:29;98061.31;;;11.83;54.39
77165;BME280;66140;50.280;18.660;2023-04-25T16:28:54;98061.56;;;11.80;53.57
77165;BME280;66140;50.280;18.660;2023-04-25T16:31:20;98070.66;;;11.77;51.56
77165;BME280;66140;50.280;18.660;2023-04-25T16:33:45;98065.66;;;11.73;52.09
77165;BME280;66140;50.280;18.660;2023-04-25T16:36:12;98066.53;;;11.73;51.52
77165;BME280;66140;50.280;18.660;2023-04-25T16:38:40;98057.25;;;11.68;51.47
77165;BME280;66140;50.280;18.660;2023-04-25T16:41:07;98061.16;;;11.63;52.97
77165;BME280;66140;50.280;18.660;2023-04-25T16:43:33;98063.03;;;11.52;53.97
77165;BME280;66140;50.280;18.660;2023-04-25T16:45:58;98061.88;;;11.45;52.33
77165;BME280;66140;50.280;18.660;2023-04-25T16:48:24;98052.28;;;11.33;52.97
77165;BME280;66140;50.280;18.660;2023-04-25T16:50:51;98060.25;;;11.21;53.16
77165;BME280;66140;50.280;18.660;2023-04-25T16:53:20;98072.00;;;11.19;53.88
77165;BME280;66140;50.280;18.660;2023-04-25T16:55:47;98066.47;;;11.11;54.48
77165;BME280;66140;50.280;18.660;2023-04-25T16:58:12;98073.25;;;11.04;54.94
77165;BME280;66140;50.280;18.660;2023-04-25T17:00:40;98082.44;;;11.00;54.00
77165;BME280;66140;50.280;18.660;2023-04-25T17:03:09;98085.00;;;10.90;53.95